Time;durP1;ratioP1;P1;durP2;ratioP2;P2;SDS_P1;SDS_P2;PMS_P1;PMS_P2;Temp;Humidity;BMP_temperature;BMP_pressure;BME280_temperature;BME280_humidity;BME280_pressure;Samples;Min_cycle;Max_cycle;Signal;HPM_P1;HPM_P2
2022/07/13 00:01:15;;;;;;;5.35;1.25;;;18.20;99.90;;;;;;5031938;28;20194;-70
2022/07/13 00:03:41;;;;;;;0.30;0.30;;;18.20;99.90;;;;;;5014233;28;20276;-70
2022/07/13 00:06:07;;;;;;;0.30;0.30;;;18.20;99.90;;;;;;5040097;28;20208;-70
2022/07/13 00:08:33;;;;;;;1.10;0.60;;;18.20;99.90;;;;;;5051743;28;20189;-70
2022/07/13 00:10:59;;;;;;;0.70;0.70;;;18.10;99.90;;;;;;5051922;28;20189;-69
2022/07/13 00:13:25;;;;;;;0.93;0.70;;;18.10;99.90;;;;;;5053071;28;20189;-69
2022/07/13 00:15:51;;;;;;;1.55;0.65;;;18.10;99.90;;;;;;5056215;28;20620;-70
2022/07/13 00:18:16;;;;;;;0.30;0.30;;;18.10;99.90;;;;;;5055705;28;20280;-70
2022/07/13 00:20:43;;;;;;;0.68;0.50;;;18.10;99.90;;;;;;5055409;28;20292;-70
2022/07/13 00:23:09;;;;;;;0.35;0.35;;;18.00;99.90;;;;;;5055133;28;20193;-70
2022/07/13 00:25:35;;;;;;;0.50;0.50;;;18.00;99.90;;;;;;5024857;28;20592;-70
2022/07/13 00:28:00;;;;;;;0.30;0.30;;;18.00;99.90;;;;;;5017750;28;20198;-70
2022/07/13 00:30:26;;;;;;;0.30;0.30;;;18.00;99.90;;;;;;5035652;28;20206;-70
2022/07/13 00:32:52;;;;;;;0.30;0.30;;;18.00;99.90;;;;;;5018321;28;20696;-70
2022/07/13 00:35:17;;;;;;;0.25;0.25;;;18.00;99.90;;;;;;5035717;28;20240;-70
2022/07/13 00:37:43;;;;;;;0.25;0.25;;;18.00;99.90;;;;;;5035676;28;20229;-69
2022/07/13 00:40:09;;;;;;;0.20;0.20;;;18.00;99.90;;;;;;5035736;28;20194;-70
2022/07/13 00:42:36;;;;;;;3.20;0.98;;;18.00;99.90;;;;;;5035063;28;20198;-69
2022/07/13 00:45:01;;;;;;;0.40;0.40;;;18.00;99.90;;;;;;5050127;28;20245;-69
2022/07/13 00:47:32;;;;;;;0.20;0.20;;;18.10;99.90;;;;;;5054801;28;20228;-69
2022/07/13 00:50:00;;;;;;;0.20;0.20;;;18.10;99.90;;;;;;5056020;28;20648;-69
2022/07/13 00:52:27;;;;;;;0.50;0.50;;;18.10;99.90;;;;;;5055185;28;20210;-69
2022/07/13 00:54:53;;;;;;;0.30;0.30;;;18.20;99.90;;;;;;5055022;28;20209;-69
2022/07/13 00:57:21;;;;;;;0.98;0.63;;;18.30;99.90;;;;;;5055265;28;20176;-70
2022/07/13 00:59:47;;;;;;;0.35;0.35;;;18.30;99.90;;;;;;5055274;28;20288;-69
2022/07/13 01:02:12;;;;;;;0.20;0.20;;;18.30;99.90;;;;;;5055126;28;20280;-70
2022/07/13 01:04:38;;;;;;;2.88;0.63;;;18.30;99.90;;;;;;5036369;28;20647;-69
2022/07/13 01:07:05;;;;;;;0.30;0.30;;;18.40;99.90;;;;;;5054502;28;20206;-69
2022/07/13 01:09:31;;;;;;;0.20;0.20;;;18.40;99.90;;;;;;5054409;28;20552;-70
2022/07/13 01:11:58;;;;;;;0.50;0.40;;;18.40;99.90;;;;;;5054663;28;20661;-69
2022/07/13 01:14:24;;;;;;;0.40;0.40;;;18.40;99.90;;;;;;5054414;28;20652;-70
2022/07/13 01:16:51;;;;;;;0.30;0.30;;;18.50;99.90;;;;;;5054396;28;20216;-69
2022/07/13 01:19:17;;;;;;;0.38;0.38;;;18.50;99.90;;;;;;5054363;28;20310;-70
2022/07/13 01:21:45;;;;;;;0.20;0.20;;;18.50;99.90;;;;;;5042541;28;20691;-69
2022/07/13 01:24:14;;;;;;;0.30;0.30;;;18.40;99.90;;;;;;5034314;28;20335;-69
2022/07/13 01:26:40;;;;;;;0.30;0.30;;;18.30;99.90;;;;;;5034585;28;20182;-70
2022/07/13 01:29:06;;;;;;;0.88;0.80;;;18.20;99.90;;;;;;5034409;28;20190;-69
2022/07/13 01:31:36;;;;;;;0.60;0.60;;;18.20;99.90;;;;;;5034234;28;20200;-69
2022/07/13 01:34:03;;;;;;;0.73;0.73;;;18.30;99.90;;;;;;5034342;28;20222;-69
2022/07/13 01:36:29;;;;;;;0.35;0.32;;;18.20;99.90;;;;;;5034089;28;20269;-70
2022/07/13 01:38:56;;;;;;;0.20;0.20;;;18.10;99.90;;;;;;5034212;28;20324;-68
2022/07/13 01:41:23;;;;;;;2.25;1.30;;;18.10;99.90;;;;;;5033753;28;20251;-69
2022/07/13 01:43:50;;;;;;;0.40;0.40;;;18.10;99.90;;;;;;5033529;28;20193;-69
2022/07/13 01:46:16;;;;;;;0.65;0.50;;;18.20;99.90;;;;;;5053208;28;20386;-70
2022/07/13 01:48:42;;;;;;;1.33;1.05;;;18.30;99.90;;;;;;5053883;28;20196;-70
2022/07/13 01:51:07;;;;;;;0.40;0.40;;;18.40;99.90;;;;;;5054065;28;20193;-70
2022/07/13 01:53:33;;;;;;;1.75;0.52;;;18.40;99.90;;;;;;5053169;28;20202;-69
2022/07/13 01:55:59;;;;;;;0.43;0.43;;;18.50;99.90;;;;;;5053350;28;20603;-70
2022/07/13 01:58:26;;;;;;;0.50;0.50;;;18.50;99.90;;;;;;5053021;28;20275;-69
2022/07/13 02:00:52;;;;;;;0.70;0.70;;;18.50;99.90;;;;;;5049194;28;20676;-69
2022/07/13 02:03:19;;;;;;;1.65;0.63;;;18.50;99.90;;;;;;5033561;28;20736;-70
2022/07/13 02:05:45;;;;;;;1.63;0.82;;;18.50;99.90;;;;;;5038496;28;20656;-70
2022/07/13 02:08:11;;;;;;;0.22;0.22;;;18.50;99.90;;;;;;5053530;28;20185;-69
2022/07/13 02:10:37;;;;;;;0.30;0.30;;;18.60;99.90;;;;;;5053315;28;20672;-69
2022/07/13 02:13:11;;;;;;;0.60;0.60;;;18.60;99.90;;;;;;5035061;28;20205;-69
2022/07/13 02:15:37;;;;;;;0.43;0.43;;;18.60;99.90;;;;;;5035054;28;20209;-70
2022/07/13 02:18:03;;;;;;;0.40;0.40;;;18.60;99.90;;;;;;5034902;28;20202;-69
2022/07/13 02:20:29;;;;;;;0.60;0.60;;;18.60;99.90;;;;;;5053116;28;20190;-70
2022/07/13 02:22:55;;;;;;;0.40;0.40;;;18.60;99.90;;;;;;5069529;28;20323;-70
2022/07/13 02:25:20;;;;;;;0.30;0.30;;;18.70;99.90;;;;;;5072955;28;20216;-68
2022/07/13 02:27:46;;;;;;;0.75;0.73;;;18.70;99.90;;;;;;5073201;28;20184;-70
2022/07/13 02:30:14;;;;;;;0.88;0.85;;;18.70;99.90;;;;;;5073244;28;20196;-70
2022/07/13 02:32:41;;;;;;;0.20;0.20;;;18.70;99.90;;;;;;5072973;28;20193;-70
2022/07/13 02:35:07;;;;;;;1.48;0.68;;;18.70;99.90;;;;;;5073145;28;20197;-70
2022/07/13 02:37:33;;;;;;;0.45;0.40;;;18.80;99.90;;;;;;5072292;28;20207;-69
2022/07/13 02:39:59;;;;;;;0.57;0.55;;;18.80;99.90;;;;;;5072883;28;20197;-70
2022/07/13 02:42:25;;;;;;;0.75;0.75;;;18.80;99.90;;;;;;5053803;28;20197;-69
2022/07/13 02:44:53;;;;;;;1.70;0.60;;;18.80;99.90;;;;;;5052858;28;20214;-69
2022/07/13 02:47:19;;;;;;;0.52;0.52;;;18.80;99.90;;;;;;5051358;28;20282;-69
2022/07/13 02:49:45;;;;;;;0.40;0.40;;;18.80;99.90;;;;;;5052902;28;20217;-69
2022/07/13 02:52:12;;;;;;;0.30;0.30;;;18.90;99.90;;;;;;5052770;28;20609;-69
2022/07/13 02:54:38;;;;;;;0.75;0.45;;;18.90;99.90;;;;;;5052548;28;20808;-69
2022/07/13 02:57:05;;;;;;;0.22;0.22;;;18.90;99.90;;;;;;5052025;28;20208;-70
2022/07/13 02:59:37;;;;;;;0.45;0.45;;;18.90;99.90;;;;;;5052238;28;20216;-71
2022/07/13 03:02:06;;;;;;;0.47;0.40;;;18.90;99.90;;;;;;5060707;28;20258;-70
2022/07/13 03:04:33;;;;;;;0.68;0.65;;;18.90;99.90;;;;;;5069149;28;20201;-69
2022/07/13 03:06:59;;;;;;;0.80;0.73;;;19.00;99.90;;;;;;5072279;28;20203;-69
2022/07/13 03:09:25;;;;;;;2.63;1.25;;;19.00;99.90;;;;;;5075550;28;20200;-69
2022/07/13 03:11:51;;;;;;;1.50;1.00;;;19.00;99.90;;;;;;5092476;28;20192;-69
2022/07/13 03:14:17;;;;;;;0.70;0.65;;;18.90;99.90;;;;;;5067947;28;20189;-69
2022/07/13 03:16:43;;;;;;;0.25;0.25;;;19.00;99.90;;;;;;5052318;28;20194;-69
2022/07/13 03:19:09;;;;;;;0.70;0.70;;;19.00;99.90;;;;;;5052250;28;20190;-66
2022/07/13 03:21:35;;;;;;;0.60;0.60;;;19.00;99.90;;;;;;5051573;28;20634;-67
2022/07/13 03:24:01;;;;;;;3.15;1.15;;;19.00;99.90;;;;;;5032516;28;20210;-67
2022/07/13 03:26:27;;;;;;;0.70;0.60;;;19.00;99.90;;;;;;5031948;28;20214;-67
2022/07/13 03:28:53;;;;;;;0.80;0.55;;;18.90;99.90;;;;;;5032176;28;20222;-69
2022/07/13 03:31:18;;;;;;;0.40;0.40;;;18.90;99.90;;;;;;5031817;28;20252;-68
2022/07/13 03:33:45;;;;;;;0.50;0.50;;;18.90;99.90;;;;;;5046205;28;20607;-69
2022/07/13 03:36:11;;;;;;;0.65;0.65;;;19.00;99.90;;;;;;5033794;28;20202;-69
2022/07/13 03:38:37;;;;;;;0.47;0.47;;;19.10;99.90;;;;;;5050953;28;20201;-70
2022/07/13 03:41:02;;;;;;;3.22;0.80;;;19.10;99.90;;;;;;5051834;28;20262;-69
2022/07/13 03:43:28;;;;;;;0.30;0.30;;;19.20;99.90;;;;;;5051774;28;20566;-69
2022/07/13 03:45:54;;;;;;;1.17;0.95;;;19.30;99.90;;;;;;5051688;28;20213;-70
2022/07/13 03:48:20;;;;;;;0.55;0.55;;;19.30;99.90;;;;;;5032999;28;20568;-69
2022/07/13 03:50:47;;;;;;;0.70;0.70;;;19.40;99.90;;;;;;5051841;28;20694;-69
2022/07/13 03:53:14;;;;;;;0.30;0.30;;;19.40;99.90;;;;;;5051703;28;20204;-69
2022/07/13 03:55:41;;;;;;;0.82;0.75;;;19.50;99.90;;;;;;5051495;28;20197;-69
2022/07/13 03:58:07;;;;;;;1.45;1.00;;;19.50;99.90;;;;;;5033884;28;20307;-70
2022/07/13 04:00:33;;;;;;;9.50;1.25;;;19.60;99.90;;;;;;5051209;28;20201;-70
2022/07/13 04:02:59;;;;;;;0.93;0.88;;;19.60;99.90;;;;;;5051520;28;20189;-69
2022/07/13 04:05:25;;;;;;;1.10;0.88;;;19.70;99.90;;;;;;5051073;28;20212;-70
2022/07/13 04:07:51;;;;;;;0.65;0.65;;;19.70;99.90;;;;;;5051741;28;20668;-70
2022/07/13 04:10:20;;;;;;;1.15;1.05;;;19.70;99.90;;;;;;5041328;28;20206;-70
2022/07/13 04:12:47;;;;;;;0.70;0.70;;;19.80;99.90;;;;;;5031774;28;20653;-70
2022/07/13 04:15:13;;;;;;;0.70;0.50;;;19.80;99.90;;;;;;5031882;28;20209;-70
2022/07/13 04:17:39;;;;;;;0.45;0.45;;;19.90;99.90;;;;;;5031300;28;20661;-69
2022/07/13 04:20:06;;;;;;;1.63;0.82;;;19.90;99.90;;;;;;5031862;28;20248;-69
2022/07/13 04:22:33;;;;;;;0.93;0.65;;;19.80;99.90;;;;;;5031229;28;20222;-69
2022/07/13 04:24:58;;;;;;;0.38;0.38;;;19.80;99.90;;;;;;5031030;28;20701;-70
2022/07/13 04:27:24;;;;;;;0.68;0.68;;;19.90;99.90;;;;;;5031364;28;20194;-69
2022/07/13 04:29:50;;;;;;;0.98;0.68;;;19.90;99.90;;;;;;5031450;28;20230;-69
2022/07/13 04:32:15;;;;;;;1.55;1.02;;;20.00;99.90;;;;;;5013972;28;20202;-70
2022/07/13 04:34:41;;;;;;;0.35;0.35;;;20.10;99.90;;;;;;5048161;28;20201;-70
2022/07/13 04:37:07;;;;;;;0.85;0.85;;;20.10;99.90;;;;;;5051423;28;20633;-70
2022/07/13 04:39:32;;;;;;;0.32;0.32;;;20.20;99.90;;;;;;5051213;28;20611;-70
2022/07/13 04:41:59;;;;;;;0.55;0.55;;;20.20;99.90;;;;;;5051475;28;20182;-69
2022/07/13 04:44:26;;;;;;;0.70;0.70;;;20.20;99.90;;;;;;5051038;28;20220;-69
2022/07/13 04:46:53;;;;;;;0.43;0.43;;;20.20;99.90;;;;;;5051255;28;20181;-69
2022/07/13 04:49:19;;;;;;;0.77;0.65;;;20.00;99.90;;;;;;5051472;28;20201;-69
2022/07/13 04:51:47;;;;;;;0.47;0.47;;;19.80;99.90;;;;;;5048194;28;20207;-69
2022/07/13 04:54:16;;;;;;;0.40;0.40;;;19.80;99.90;;;;;;5031337;28;20277;-69
2022/07/13 04:56:41;;;;;;;0.93;0.63;;;19.70;99.90;;;;;;5031273;28;20201;-69
2022/07/13 04:59:07;;;;;;;1.33;0.68;;;19.90;99.90;;;;;;5031115;28;20537;-70
2022/07/13 05:01:33;;;;;;;2.47;0.82;;;19.70;99.90;;;;;;5034485;28;20285;-69
2022/07/13 05:03:59;;;;;;;0.63;0.63;;;19.70;99.90;;;;;;5034878;28;20256;-69
2022/07/13 05:06:25;;;;;;;1.95;1.05;;;19.50;99.90;;;;;;5026971;28;20217;-69
2022/07/13 05:08:51;;;;;;;1.10;0.88;;;19.40;99.90;;;;;;5034903;28;20240;-71
2022/07/13 05:11:16;;;;;;;0.65;0.65;;;19.30;99.90;;;;;;5034745;28;20277;-69
2022/07/13 05:13:42;;;;;;;1.17;0.80;;;19.30;99.90;;;;;;5034641;28;20191;-70
2022/07/13 05:16:08;;;;;;;1.17;0.70;;;19.20;99.90;;;;;;5034631;28;20194;-69
2022/07/13 05:18:34;;;;;;;0.77;0.73;;;19.20;99.90;;;;;;5034443;28;20271;-70
2022/07/13 05:21:00;;;;;;;1.83;0.88;;;19.20;99.90;;;;;;5034385;28;20245;-69
2022/07/13 05:23:26;;;;;;;1.40;1.30;;;19.20;99.90;;;;;;5042235;28;20225;-69
2022/07/13 05:25:51;;;;;;;0.75;0.57;;;19.10;99.90;;;;;;5065268;28;20574;-69
2022/07/13 05:28:17;;;;;;;0.55;0.55;;;18.90;99.90;;;;;;5074195;28;20189;-70
2022/07/13 05:30:43;;;;;;;1.83;1.02;;;18.90;99.90;;;;;;5074245;28;20231;-70
2022/07/13 05:33:08;;;;;;;0.40;0.40;;;19.10;99.90;;;;;;5074322;28;20189;-69
2022/07/13 05:35:34;;;;;;;0.40;0.40;;;19.40;99.90;;;;;;5073691;28;20222;-70
2022/07/13 05:38:00;;;;;;;0.57;0.57;;;19.80;99.90;;;;;;5074381;28;20674;-70
2022/07/13 05:40:25;;;;;;;0.40;0.40;;;19.90;99.90;;;;;;5074275;28;20586;-70
2022/07/13 05:42:52;;;;;;;1.95;0.70;;;20.00;99.90;;;;;;5074129;28;20269;-70
2022/07/13 05:45:19;;;;;;;0.80;0.80;;;20.00;99.90;;;;;;5073902;28;20207;-70
2022/07/13 05:47:48;;;;;;;1.05;0.73;;;19.70;99.90;;;;;;5074144;28;20294;-69
2022/07/13 05:50:14;;;;;;;2.00;0.90;;;19.60;99.90;;;;;;5074351;28;20193;-69
2022/07/13 05:52:40;;;;;;;0.52;0.52;;;19.50;99.90;;;;;;5073756;28;20197;-69
2022/07/13 05:55:07;;;;;;;2.35;1.33;;;19.70;99.90;;;;;;5073788;28;20197;-69
2022/07/13 05:57:32;;;;;;;0.60;0.60;;;19.90;99.90;;;;;;5073543;28;20201;-70
2022/07/13 05:59:59;;;;;;;0.68;0.68;;;20.00;99.90;;;;;;5091965;28;20231;-70
2022/07/13 06:02:25;;;;;;;0.70;0.70;;;20.30;99.90;;;;;;5086167;28;20207;-69
2022/07/13 06:04:50;;;;;;;1.58;0.82;;;20.40;99.90;;;;;;5072429;28;20555;-70
2022/07/13 06:07:16;;;;;;;1.02;0.95;;;20.50;99.90;;;;;;5055582;28;20190;-70
2022/07/13 06:09:42;;;;;;;0.82;0.50;;;20.50;99.90;;;;;;5053547;28;20189;-70
2022/07/13 06:12:07;;;;;;;2.13;1.17;;;20.40;99.90;;;;;;5067910;28;20194;-69
2022/07/13 06:14:33;;;;;;;0.43;0.43;;;20.10;99.90;;;;;;5053288;28;20284;-69
2022/07/13 06:16:59;;;;;;;0.63;0.63;;;20.00;99.90;;;;;;5052859;28;20319;-69
2022/07/13 06:19:25;;;;;;;1.15;0.82;;;20.00;99.90;;;;;;5053096;28;20193;-68
2022/07/13 06:21:50;;;;;;;2.85;1.35;;;20.00;99.90;;;;;;5060332;28;20691;-69
2022/07/13 06:24:16;;;;;;;1.55;1.20;;;20.10;99.90;;;;;;5053238;28;20201;-69
2022/07/13 06:26:42;;;;;;;0.60;0.60;;;19.90;99.90;;;;;;5039966;28;20203;-69
2022/07/13 06:29:07;;;;;;;0.40;0.40;;;19.90;99.90;;;;;;5033095;28;20201;-69
2022/07/13 06:31:33;;;;;;;0.80;0.80;;;19.90;99.90;;;;;;5032951;28;20187;-69
2022/07/13 06:33:59;;;;;;;0.60;0.60;;;19.80;99.90;;;;;;5033203;28;20194;-70
2022/07/13 06:36:25;;;;;;;1.75;0.98;;;19.50;99.90;;;;;;5032994;28;20225;-69
2022/07/13 06:38:51;;;;;;;0.63;0.63;;;19.40;99.90;;;;;;5033009;28;20198;-69
2022/07/13 06:41:17;;;;;;;1.83;1.63;;;19.40;99.90;;;;;;5032966;28;20241;-70
2022/07/13 06:43:42;;;;;;;2.85;1.13;;;19.30;99.90;;;;;;5032849;28;20230;-70
2022/07/13 06:46:08;;;;;;;0.70;0.70;;;19.30;99.90;;;;;;5015113;28;20232;-70
2022/07/13 06:48:37;;;;;;;1.05;0.70;;;19.20;99.90;;;;;;5032644;28;20198;-69
2022/07/13 06:51:04;;;;;;;0.60;0.60;;;19.30;99.90;;;;;;5033258;28;20673;-69
2022/07/13 06:53:30;;;;;;;0.75;0.75;;;19.40;99.90;;;;;;5032544;28;20213;-69
2022/07/13 06:55:55;;;;;;;0.57;0.57;;;19.40;99.90;;;;;;5032177;28;20690;-69
2022/07/13 06:58:21;;;;;;;0.80;0.80;;;19.60;99.90;;;;;;5036788;28;20197;-69
2022/07/13 07:00:48;;;;;;;1.08;0.75;;;19.40;99.90;;;;;;5052409;28;20205;-69
2022/07/13 07:03:13;;;;;;;1.23;0.95;;;19.10;99.90;;;;;;5052698;28;20194;-69
2022/07/13 07:05:40;;;;;;;0.80;0.70;;;19.20;99.90;;;;;;5051874;28;20213;-69
2022/07/13 07:08:05;;;;;;;2.42;0.90;;;19.30;99.90;;;;;;5052455;28;20222;-69
2022/07/13 07:10:31;;;;;;;0.30;0.30;;;19.50;99.90;;;;;;5052205;28;20272;-69
2022/07/13 07:12:57;;;;;;;1.55;1.10;;;19.50;99.90;;;;;;5034516;28;20202;-68
2022/07/13 07:15:23;;;;;;;1.02;0.93;;;19.60;99.90;;;;;;5052114;28;20202;-69
2022/07/13 07:17:49;;;;;;;1.95;1.17;;;19.80;99.90;;;;;;5049415;28;20201;-70
2022/07/13 07:20:16;;;;;;;4.22;0.93;;;19.80;99.90;;;;;;5052204;28;20189;-70
2022/07/13 07:22:43;;;;;;;12.13;0.90;;;19.90;99.90;;;;;;5051551;28;20291;-69
2022/07/13 07:25:09;;;;;;;1.67;0.60;;;20.10;99.90;;;;;;5052456;28;20206;-69
2022/07/13 07:27:35;;;;;;;0.63;0.60;;;19.90;99.90;;;;;;5051805;28;20186;-69
2022/07/13 07:30:01;;;;;;;0.57;0.57;;;20.00;99.90;;;;;;5052445;28;20587;-69
2022/07/13 07:32:27;;;;;;;1.10;0.93;;;20.00;99.90;;;;;;5051838;28;20190;-69
2022/07/13 07:34:53;;;;;;;0.40;0.40;;;20.20;99.90;;;;;;5051323;28;20200;-69
2022/07/13 07:37:20;;;;;;;0.88;0.70;;;20.40;99.90;;;;;;5033924;28;20201;-70
2022/07/13 07:39:46;;;;;;;0.70;0.70;;;20.40;99.90;;;;;;5051960;28;20208;-69
2022/07/13 07:42:12;;;;;;;0.85;0.70;;;20.20;99.90;;;;;;5052033;28;20664;-69
2022/07/13 07:44:38;;;;;;;1.33;0.65;;;20.10;99.90;;;;;;5051742;28;20212;-70
2022/07/13 07:47:04;;;;;;;2.00;1.20;;;20.00;99.90;;;;;;5033904;28;20641;-70
2022/07/13 07:49:29;;;;;;;1.30;0.88;;;20.00;99.90;;;;;;5051487;28;20197;-70
2022/07/13 07:51:55;;;;;;;2.28;0.60;;;20.10;99.90;;;;;;5020395;28;20256;-70
2022/07/13 07:54:21;;;;;;;0.77;0.77;;;20.10;99.90;;;;;;5031686;28;20194;-70
2022/07/13 07:56:46;;;;;;;6.55;1.00;;;19.90;99.90;;;;;;5032238;28;20197;-70
2022/07/13 07:59:12;;;;;;;1.58;1.00;;;19.80;99.90;;;;;;5031856;28;20221;-69
2022/07/13 08:01:38;;;;;;;0.95;0.95;;;19.60;99.90;;;;;;5031472;28;20205;-69
2022/07/13 08:04:04;;;;;;;1.45;0.80;;;19.70;99.90;;;;;;5014172;28;20233;-69
2022/07/13 08:06:30;;;;;;;0.85;0.73;;;19.70;99.90;;;;;;5042575;28;20201;-69
2022/07/13 08:08:55;;;;;;;0.50;0.50;;;19.80;99.90;;;;;;5051796;28;20268;-70
2022/07/13 08:11:21;;;;;;;7.57;1.02;;;19.80;99.90;;;;;;5051140;28;20193;-70
2022/07/13 08:13:47;;;;;;;0.93;0.82;;;19.80;99.90;;;;;;5047107;28;20260;-70
2022/07/13 08:16:14;;;;;;;0.50;0.50;;;19.70;99.90;;;;;;5031547;28;20217;-69
2022/07/13 08:18:40;;;;;;;0.50;0.50;;;19.80;99.90;;;;;;5031267;28;20206;-70
2022/07/13 08:21:06;;;;;;;0.90;0.77;;;19.90;99.90;;;;;;5031372;28;20325;-70
2022/07/13 08:26:25;;;;;;;0.20;0.20;;;20.10;99.90;;;;;;5031996;28;20244;-69
2022/07/13 08:28:52;;;;;;;2.85;0.82;;;20.20;99.90;;;;;;5031504;28;20201;-70
2022/07/13 08:31:22;;;;;;;19.77;1.10;;;20.10;99.90;;;;;;5031096;28;20218;-69
2022/07/13 08:39:18;;;;;;;2.03;0.88;;;20.10;99.90;;;;;;5035373;28;20205;-69
2022/07/13 08:41:45;;;;;;;0.43;0.40;;;20.00;99.90;;;;;;5035332;28;20202;-69
2022/07/13 08:44:11;;;;;;;1.17;1.05;;;19.80;99.90;;;;;;5035228;28;20194;-69
2022/07/13 08:46:37;;;;;;;1.95;1.02;;;19.90;99.90;;;;;;5034869;28;20210;-70
2022/07/13 08:49:04;;;;;;;2.92;0.47;;;20.10;99.90;;;;;;5035048;28;20201;-70
2022/07/13 08:51:32;;;;;;;0.98;0.57;;;20.10;99.90;;;;;;5016874;28;20206;-70
2022/07/13 08:53:59;;;;;;;0.70;0.65;;;20.20;99.90;;;;;;5035188;28;20269;-70
2022/07/13 08:56:25;;;;;;;3.03;1.33;;;20.30;99.90;;;;;;5034529;28;20265;-70
2022/07/13 08:58:52;;;;;;;0.60;0.60;;;20.30;99.90;;;;;;5043266;28;20228;-70
2022/07/13 09:01:19;;;;;;;0.63;0.63;;;20.10;99.90;;;;;;5054399;28;20680;-70
2022/07/13 09:03:46;;;;;;;0.65;0.65;;;20.30;99.90;;;;;;5054213;28;20703;-71
2022/07/13 09:06:40;;;;;;;1.40;1.05;;;20.40;99.90;;;;;;5032634;28;20669;-71
2022/07/13 09:09:06;;;;;;;1.85;1.10;;;20.60;99.90;;;;;;5034288;28;20195;-71
2022/07/13 09:11:33;;;;;;;10.57;1.05;;;21.10;99.90;;;;;;5032626;28;20220;-71
2022/07/13 09:13:58;;;;;;;1.20;0.95;;;21.60;99.90;;;;;;5054465;28;20186;-70
2022/07/13 09:16:26;;;;;;;1.35;0.73;;;21.90;99.90;;;;;;5054695;28;20729;-70
2022/07/13 09:18:53;;;;;;;5.22;0.95;;;22.30;99.90;;;;;;5053866;28;20721;-70
2022/07/13 09:21:20;;;;;;;0.63;0.57;;;22.80;99.90;;;;;;5054009;28;20190;-70
2022/07/13 09:23:55;;;;;;;0.70;0.60;;;22.90;99.90;;;;;;5067188;28;20236;-70
2022/07/13 09:26:23;;;;;;;3.25;1.60;;;22.70;99.90;;;;;;5074053;28;20650;-71
2022/07/13 09:28:52;;;;;;;0.40;0.40;;;23.00;99.90;;;;;;5073114;28;20197;-70
2022/07/13 09:31:19;;;;;;;1.88;1.05;;;23.10;99.90;;;;;;5074136;28;20193;-70
2022/07/13 09:33:46;;;;;;;1.00;0.70;;;22.90;99.90;;;;;;5074318;28;20258;-71
2022/07/13 09:36:22;;;;;;;1.50;1.05;;;23.20;99.90;;;;;;5072987;28;20267;-70
2022/07/13 09:38:53;;;;;;;1.40;0.93;;;23.70;99.90;;;;;;5074163;28;20283;-70
2022/07/13 09:41:25;;;;;;;0.63;0.63;;;24.80;99.90;;;;;;5074067;28;20196;-69
2022/07/13 09:46:55;;;;;;;0.60;0.60;;;25.20;99.90;;;;;;5092892;28;20214;-70
2022/07/13 09:49:33;;;;;;;1.27;0.80;;;25.30;99.90;;;;;;5093959;28;20184;-70
2022/07/13 09:51:59;;;;;;;3.42;0.98;;;25.60;99.90;;;;;;5094036;28;20196;-72
2022/07/13 09:54:30;;;;;;;0.40;0.40;;;25.70;99.90;;;;;;5090573;28;20649;-71
2022/07/13 09:57:00;;;;;;;1.13;0.88;;;26.20;99.90;;;;;;5073755;28;20193;-71
2022/07/13 09:59:29;;;;;;;0.55;0.50;;;26.20;99.90;;;;;;5073339;28;20280;-71
2022/07/13 10:01:56;;;;;;;0.57;0.45;;;26.50;99.90;;;;;;5073636;28;20220;-70
2022/07/13 10:04:23;;;;;;;0.73;0.63;;;27.00;99.90;;;;;;5073487;28;20615;-71
2022/07/13 10:06:50;;;;;;;0.65;0.47;;;27.60;99.90;;;;;;5063730;28;20694;-70
2022/07/13 10:09:28;;;;;;;0.90;0.52;;;28.20;99.90;;;;;;5053455;28;20197;-70
2022/07/13 10:11:55;;;;;;;0.88;0.40;;;27.90;99.90;;;;;;5053461;28;20196;-71
2022/07/13 10:14:21;;;;;;;1.13;0.68;;;27.80;99.90;;;;;;5055471;28;20203;-71
2022/07/13 10:16:47;;;;;;;1.75;1.00;;;27.90;99.90;;;;;;5072114;28;20717;-70
2022/07/13 10:19:14;;;;;;;0.28;0.28;;;28.10;99.90;;;;;;5073310;28;20180;-71
2022/07/13 10:22:03;;;;;;;1.65;0.80;;;28.20;99.90;;;;;;5071895;28;20206;-71
2022/07/13 10:24:29;;;;;;;0.65;0.52;;;28.00;99.90;;;;;;5072953;28;20679;-71
2022/07/13 10:27:26;;;;;;;1.27;0.60;;;28.20;99.90;;;;;;5071912;28;20536;-72
2022/07/13 10:30:01;;;;;;;0.38;0.38;;;28.10;99.90;;;;;;5073151;28;20216;-70
2022/07/13 10:32:35;;;;;;;0.40;0.40;;;27.50;99.90;;;;;;5071498;28;20655;-71
2022/07/13 10:35:06;;;;;;;2.58;0.75;;;27.00;99.90;;;;;;5072854;28;20195;-71
2022/07/13 10:37:59;;;;;;;0.82;0.70;;;26.40;99.90;;;;;;5072762;28;20688;-72
2022/07/13 10:40:28;;;;;;;1.65;1.00;;;26.20;99.90;;;;;;5084264;28;20282;-71
2022/07/13 10:42:58;;;;;;;0.88;0.50;;;26.40;99.90;;;;;;5093075;28;20200;-71
2022/07/13 10:45:38;;;;;;;0.75;0.60;;;26.40;99.90;;;;;;5092803;28;20246;-72
2022/07/13 10:48:21;;;;;;;0.55;0.55;;;25.90;99.90;;;;;;5093125;28;20196;-70
2022/07/13 10:50:48;;;;;;;0.50;0.50;;;25.60;99.90;;;;;;5087637;28;20208;-71
2022/07/13 10:53:18;;;;;;;0.30;0.30;;;25.50;99.90;;;;;;5072482;28;20293;-70
2022/07/13 10:55:49;;;;;;;0.30;0.30;;;25.80;99.90;;;;;;5072614;28;20651;-71
2022/07/13 10:58:30;;;;;;;0.28;0.28;;;26.40;99.90;;;;;;5072065;28;20207;-71
2022/07/13 11:00:56;;;;;;;0.47;0.20;;;26.30;99.90;;;;;;5071153;28;20561;-71
2022/07/13 11:03:35;;;;;;;5.43;0.40;;;25.80;99.90;;;;;;5061263;28;20213;-71
2022/07/13 11:06:06;;;;;;;0.10;0.10;;;25.20;99.90;;;;;;5059424;28;20345;-71
2022/07/13 11:08:32;;;;;;;0.28;0.28;;;25.30;99.90;;;;;;5072502;28;20204;-71
2022/07/13 11:11:17;;;;;;;0.25;0.05;;;26.20;99.90;;;;;;5072314;28;20196;-71
2022/07/13 11:13:45;;;;;;;0.35;0.28;;;27.40;99.90;;;;;;5072442;28;20211;-71
2022/07/13 11:16:34;;;;;;;0.03;0.03;;;27.70;99.90;;;;;;5072198;28;20192;-71
2022/07/13 11:18:59;;;;;;;0.52;0.30;;;28.00;99.90;;;;;;5072135;28;20204;-71
2022/07/13 11:21:25;;;;;;;0.35;0.20;;;28.00;99.90;;;;;;5071832;28;20200;-71
2022/07/13 11:26:52;;;;;;;0.10;0.10;;;27.00;99.90;;;;;;5071840;28;20254;-71
2022/07/13 11:29:20;;;;;;;0.30;0.30;;;26.30;99.40;;;;;;5071841;28;20191;-70
2022/07/13 11:31:54;;;;;;;0.25;0.25;;;25.80;99.90;;;;;;5071061;28;20181;-71
2022/07/13 11:34:19;;;;;;;0.20;0.20;;;25.30;99.90;;;;;;5071739;28;20176;-71
2022/07/13 11:36:46;;;;;;;0.68;0.38;;;24.90;99.90;;;;;;5084313;28;20200;-70
2022/07/13 11:39:26;;;;;;;0.82;0.45;;;24.50;99.90;;;;;;5091628;28;20203;-71
2022/07/13 11:41:53;;;;;;;0.30;0.30;;;24.00;99.90;;;;;;5092051;28;20233;-70
2022/07/13 11:44:25;;;;;;;0.20;0.20;;;23.80;99.90;;;;;;5091221;28;20184;-70
2022/07/13 11:46:55;;;;;;;0.20;0.20;;;23.50;99.90;;;;;;5088768;28;20229;-70
2022/07/13 11:49:21;;;;;;;0.20;0.20;;;23.40;99.90;;;;;;5071584;28;20196;-70
2022/07/13 11:51:48;;;;;;;0.35;0.35;;;23.30;99.90;;;;;;5071851;28;20691;-70
2022/07/13 11:54:16;;;;;;;0.20;0.20;;;23.10;99.90;;;;;;5071882;28;20264;-70
2022/07/13 11:56:50;;;;;;;0.30;0.30;;;22.90;99.90;;;;;;5071682;28;20196;-71
2022/07/13 11:59:42;;;;;;;0.22;0.22;;;22.70;99.90;;;;;;5070181;28;20205;-70
2022/07/13 12:02:11;;;;;;;0.28;0.28;;;22.50;99.90;;;;;;5071545;28;20246;-70
2022/07/13 12:04:45;;;;;;;0.20;0.20;;;22.30;99.90;;;;;;5070025;28;20205;-71
2022/07/13 12:07:11;;;;;;;4.32;0.52;;;22.10;99.90;;;;;;5071427;28;20258;-70
2022/07/13 12:09:43;;;;;;;0.40;0.40;;;21.90;99.90;;;;;;5072852;28;20188;-70
2022/07/13 12:12:08;;;;;;;0.40;0.40;;;21.50;99.90;;;;;;5075720;28;20599;-70
2022/07/13 12:14:34;;;;;;;0.35;0.32;;;21.30;99.90;;;;;;5068445;28;20197;-70
2022/07/13 12:17:00;;;;;;;0.20;0.20;;;21.10;99.90;;;;;;5055645;28;20787;-69
2022/07/13 12:19:26;;;;;;;0.50;0.50;;;20.90;99.90;;;;;;5055329;28;20186;-70
2022/07/13 12:21:59;;;;;;;0.60;0.60;;;21.00;99.90;;;;;;5055512;28;20215;-70
2022/07/13 12:24:24;;;;;;;0.30;0.30;;;20.80;99.90;;;;;;5055259;28;20270;-69
2022/07/13 12:26:52;;;;;;;0.52;0.45;;;20.90;99.90;;;;;;5053991;28;20209;-70
2022/07/13 12:29:33;;;;;;;0.40;0.40;;;21.50;99.90;;;;;;5055156;28;20260;-70
2022/07/13 12:32:01;;;;;;;0.55;0.38;;;22.20;99.90;;;;;;5063080;28;20261;-70
2022/07/13 12:34:27;;;;;;;0.22;0.22;;;22.50;99.90;;;;;;5095534;28;20192;-70
2022/07/13 12:36:53;;;;;;;0.30;0.30;;;22.50;99.90;;;;;;5095520;28;20192;-70
2022/07/13 12:39:36;;;;;;;0.68;0.38;;;22.40;99.90;;;;;;5095141;28;20187;-70
2022/07/13 12:42:02;;;;;;;0.20;0.20;;;22.30;99.90;;;;;;5095375;28;20733;-70
2022/07/13 12:44:32;;;;;;;0.30;0.30;;;21.90;99.90;;;;;;5079640;28;20203;-70
2022/07/13 12:47:00;;;;;;;1.83;0.43;;;21.30;99.90;;;;;;5075254;28;20235;-70
2022/07/13 12:49:37;;;;;;;0.82;0.47;;;21.20;99.90;;;;;;5074550;28;20188;-71
2022/07/13 12:52:10;;;;;;;0.50;0.40;;;21.40;99.90;;;;;;5074925;28;20679;-71
2022/07/13 12:54:54;;;;;;;0.20;0.20;;;21.90;99.90;;;;;;5074207;28;20728;-70
2022/07/13 12:57:22;;;;;;;0.30;0.30;;;22.10;99.90;;;;;;5054661;28;20228;-70
2022/07/13 13:00:00;;;;;;;0.20;0.20;;;22.30;99.90;;;;;;5053765;28;20202;-70
2022/07/13 13:02:28;;;;;;;0.30;0.30;;;23.00;99.90;;;;;;5054454;28;20193;-70